Terminal Aerodrome Forecast
Issued by NWS

Home | Current Version | Previous Version | Text Only | Print | Product List | Glossary On
Versions: 1 2 3 4 5 6 7 8 9 10 11 12 13 14 15
000
FTUS45 KGJT 260526
TAFVEL
TAF
KVEL 260526Z 2606/2706 30005KT P6SM SCT180
     FM261800 18004KT P6SM SCT250
     FM262100 24008KT P6SM FEW130 SCT250
     FM262300 29008KT P6SM SCT250
     FM270300 32004KT P6SM FEW250=

USA.gov is the U.S. government's official web portal to all federal, state and local government web resources and services.